Time;durP1;ratioP1;P1;durP2;ratioP2;P2;SDS_P1;SDS_P2;PMS_P1;PMS_P2;Temp;Humidity;BMP_temperature;BMP_pressure;BME280_temperature;BME280_humidity;BME280_pressure;Samples;Min_cycle;Max_cycle;Signal;HPM_P1;HPM_P2
2022/12/31 00:01:09;;;;;;;;;;;;;;;20.28;52.59;100165.00;5023002;28;4116;-62
2022/12/31 00:03:35;;;;;;;;;;;;;;;20.27;52.58;100172.13;5022507;28;4199;-62
2022/12/31 00:06:10;;;;;;;;;;;;;;;20.26;52.64;100162.78;5023676;28;4111;-61
2022/12/31 00:08:37;;;;;;;;;;;;;;;20.27;52.63;100177.88;5022797;28;5240;-61
2022/12/31 00:11:03;;;;;;;;;;;;;;;20.27;52.55;100177.88;5021358;28;5312;-61
2022/12/31 00:13:29;;;;;;;;;;;;;;;20.26;52.68;100177.16;5021831;28;5297;-61
2022/12/31 00:16:04;;;;;;;;;;;;;;;20.24;52.71;100177.06;5020636;28;4069;-62
2022/12/31 00:18:37;;;;;;;;;;;;;;;20.24;52.50;100191.44;5021528;28;5348;-61
2022/12/31 00:21:06;;;;;;;;;;;;;;;20.24;52.57;100197.19;5019930;28;4132;-63
2022/12/31 00:23:33;;;;;;;;;;;;;;;20.23;52.58;100186.38;5022719;28;5273;-62
2022/12/31 00:26:05;;;;;;;;;;;;;;;20.25;53.30;100192.22;5020507;28;4228;-63
2022/12/31 00:28:35;;;;;;;;;;;;;;;20.29;53.40;100192.31;5022484;28;4085;-62
2022/12/31 00:31:05;;;;;;;;;;;;;;;20.29;53.12;100192.31;5020430;28;5241;-62
2022/12/31 00:33:31;;;;;;;;;;;;;;;20.26;53.30;100199.41;5017005;28;4172;-62
2022/12/31 00:36:12;;;;;;;;;;;;;;;20.24;53.18;100196.47;5015836;28;3960;-62
2022/12/31 00:38:38;;;;;;;;;;;;;;;20.25;53.20;100200.84;5017593;28;5361;-62
2022/12/31 00:41:04;;;;;;;;;;;;;;;20.23;53.25;100189.97;5018879;28;4136;-62
2022/12/31 00:43:31;;;;;;;;;;;;;;;20.21;53.24;100192.78;5017840;28;5212;-62
2022/12/31 00:45:57;;;;;;;;;;;;;;;20.21;53.19;100186.31;5023875;28;4193;-62
2022/12/31 00:48:24;;;;;;;;;;;;;;;20.22;53.11;100176.25;5026521;28;5191;-62
2022/12/31 00:50:50;;;;;;;;;;;;;;;20.21;53.17;100180.56;5024377;28;4241;-60
2022/12/31 00:53:16;;;;;;;;;;;;;;;20.20;53.03;100196.31;5020846;28;5255;-62
2022/12/31 00:55:43;;;;;;;;;;;;;;;20.16;53.25;100201.91;5020583;28;5012;-62
2022/12/31 00:58:09;;;;;;;;;;;;;;;20.13;53.29;100203.97;5022205;28;4205;-62
2022/12/31 01:00:36;;;;;;;;;;;;;;;20.13;53.18;100214.75;5021418;28;4080;-62
2022/12/31 01:03:02;;;;;;;;;;;;;;;20.14;53.31;100230.59;5019187;28;3971;-60
2022/12/31 01:05:29;;;;;;;;;;;;;;;20.12;53.29;100239.16;5007517;28;4208;-62
2022/12/31 01:07:56;;;;;;;;;;;;;;;20.12;53.28;100244.88;5021589;28;5205;-62
2022/12/31 01:13:07;;;;;;;;;;;;;;;20.11;53.23;100240.53;5018892;28;4194;-62
2022/12/31 01:15:34;;;;;;;;;;;;;;;20.10;53.31;100231.16;5021026;28;4366;-62
2022/12/31 01:18:01;;;;;;;;;;;;;;;20.09;53.34;100233.31;5019078;28;5266;-63
2022/12/31 01:20:28;;;;;;;;;;;;;;;20.09;53.19;100224.69;5025396;28;5380;-60
2022/12/31 01:22:54;;;;;;;;;;;;;;;20.09;53.22;100239.06;5023762;28;4149;-60
2022/12/31 01:25:20;;;;;;;;;;;;;;;20.08;53.21;100231.81;5016588;28;4295;-60
2022/12/31 01:27:47;;;;;;;;;;;;;;;20.10;53.17;100245.53;5015468;28;4207;-61
2022/12/31 01:30:13;;;;;;;;;;;;;;;20.10;53.13;100245.53;5018791;28;5502;-60
2022/12/31 01:32:39;;;;;;;;;;;;;;;20.09;53.29;100244.09;5020495;28;4203;-60
2022/12/31 01:35:06;;;;;;;;;;;;;;;20.08;53.37;100257.69;5009573;28;5431;-60
2022/12/31 01:37:32;;;;;;;;;;;;;;;20.08;53.29;100251.94;5015112;28;4221;-60
2022/12/31 01:39:58;;;;;;;;;;;;;;;20.07;53.28;100264.84;5021287;28;4253;-66
2022/12/31 01:42:25;;;;;;;;;;;;;;;20.07;53.19;100273.47;5011536;28;4390;-61
2022/12/31 01:44:54;;;;;;;;;;;;;;;20.07;53.19;100270.59;5021028;28;4040;-60
2022/12/31 01:47:23;;;;;;;;;;;;;;;20.06;53.19;100269.09;5018468;28;4168;-60
2022/12/31 01:49:51;;;;;;;;;;;;;;;20.06;53.27;100271.25;4996341;28;4038;-60
2022/12/31 01:52:21;;;;;;;;;;;;;;;20.06;53.27;100263.38;5021477;28;4181;-62
2022/12/31 01:54:49;;;;;;;;;;;;;;;20.06;53.15;100262.63;5000674;28;4204;-61
2022/12/31 01:57:16;;;;;;;;;;;;;;;20.05;53.28;100267.66;5003422;28;4210;-60
2022/12/31 01:59:42;;;;;;;;;;;;;;;20.06;53.18;100269.09;4996116;28;4074;-61
2022/12/31 02:02:09;;;;;;;;;;;;;;;20.05;53.36;100267.66;5000333;28;4058;-61
2022/12/31 02:04:35;;;;;;;;;;;;;;;20.05;53.31;100267.66;4996987;28;4139;-61
2022/12/31 02:07:02;;;;;;;;;;;;;;;20.04;53.34;100271.94;5017324;28;4166;-61
2022/12/31 02:09:29;;;;;;;;;;;;;;;20.04;53.41;100266.19;5017564;28;4013;-61
2022/12/31 02:11:55;;;;;;;;;;;;;;;20.03;53.37;100267.56;5020212;28;4070;-61
2022/12/31 02:14:25;;;;;;;;;;;;;;;20.04;53.26;100271.94;5017812;28;4117;-61
2022/12/31 02:17:10;;;;;;;;;;;;;;;20.05;53.26;100267.66;4993715;28;4107;-61
2022/12/31 02:19:43;;;;;;;;;;;;;;;20.04;53.32;100259.69;5017095;28;4653;-61
2022/12/31 02:22:29;;;;;;;;;;;;;;;20.03;53.27;100269.72;5020348;28;5339;-61
2022/12/31 02:25:12;;;;;;;;;;;;;;;20.03;53.46;100272.59;4999497;28;3987;-61
2022/12/31 02:27:41;;;;;;;;;;;;;;;20.02;53.41;100268.97;4994972;28;5405;-61
2022/12/31 02:30:13;;;;;;;;;;;;;;;20.02;53.53;100262.47;4999973;28;5230;-61
2022/12/31 02:33:01;;;;;;;;;;;;;;;20.08;53.92;100254.81;5017395;28;5322;-60
2022/12/31 02:35:28;;;;;;;;;;;;;;;20.12;53.94;100260.00;5006624;28;4232;-61
2022/12/31 02:38:00;;;;;;;;;;;;;;;20.14;54.29;100256.47;5014553;28;4188;-61
2022/12/31 02:40:26;;;;;;;;;;;;;;;20.16;54.39;100270.91;4995667;28;4258;-61
2022/12/31 02:42:52;;;;;;;;;;;;;;;20.15;54.38;100275.19;4994901;28;4135;-61
2022/12/31 02:45:22;;;;;;;;;;;;;;;20.14;54.32;100267.97;5020561;28;4286;-61
2022/12/31 02:48:09;;;;;;;;;;;;;;;20.14;54.38;100267.97;5020028;28;4039;-61
2022/12/31 02:50:54;;;;;;;;;;;;;;;20.13;54.48;100266.47;5016449;28;5005;-61
2022/12/31 02:53:26;;;;;;;;;;;;;;;20.11;54.34;100272.16;5015417;28;5212;-61
2022/12/31 03:06:54;;;;;;;;;;;;;;;20.09;54.24;100261.31;4991922;28;5231;-61
2022/12/31 03:09:21;;;;;;;;;;;;;;;20.08;54.37;100260.56;4995606;28;4144;-61
2022/12/31 03:14:32;;;;;;;;;;;;;;;20.07;54.28;100258.38;5020635;28;4038;-61
2022/12/31 03:17:01;;;;;;;;;;;;;;;20.08;54.24;100254.09;5017777;28;4211;-61
2022/12/31 03:22:28;;;;;;;;;;;;;;;20.06;54.22;100257.63;5020135;28;5376;-61
2022/12/31 03:27:39;;;;;;;;;;;;;;;20.07;54.33;100258.38;5020188;28;4046;-61
2022/12/31 03:30:06;;;;;;;;;;;;;;;20.06;54.21;100251.13;5017524;28;5237;-61
2022/12/31 03:32:32;;;;;;;;;;;;;;;20.04;54.24;100260.44;5018691;28;4279;-61
2022/12/31 03:34:58;;;;;;;;;;;;;;;20.06;54.32;100251.13;5019509;28;4152;-61
2022/12/31 03:37:25;;;;;;;;;;;;;;;20.04;54.21;100243.19;5015729;28;5285;-61
2022/12/31 03:39:51;;;;;;;;;;;;;;;20.05;54.17;100244.66;5020825;28;5238;-61
2022/12/31 03:42:17;;;;;;;;;;;;;;;20.05;54.29;100238.91;5018115;28;4222;-61
2022/12/31 03:44:44;;;;;;;;;;;;;;;20.05;54.25;100238.91;5019325;28;4056;-61
2022/12/31 03:47:10;;;;;;;;;;;;;;;20.05;54.34;100233.16;5016531;28;4207;-61
2022/12/31 03:49:37;;;;;;;;;;;;;;;20.04;54.16;100217.31;5022519;28;4216;-61
2022/12/31 03:52:05;;;;;;;;;;;;;;;20.08;54.14;100217.47;5021005;28;4120;-60
2022/12/31 03:54:31;;;;;;;;;;;;;;;20.08;54.20;100208.09;5023556;28;3986;-60
2022/12/31 03:56:57;;;;;;;;;;;;;;;20.09;54.23;100210.31;5022596;28;4201;-61
2022/12/31 03:59:25;;;;;;;;;;;;;;;20.11;53.98;100206.03;5015989;28;5578;-61
2022/12/31 04:01:52;;;;;;;;;;;;;;;20.11;54.20;100218.25;5017951;28;4140;-61
2022/12/31 04:04:18;;;;;;;;;;;;;;;20.12;54.26;100219.03;5018308;28;4274;-61
2022/12/31 04:06:45;;;;;;;;;;;;;;;20.13;54.45;100214.75;5020360;28;4192;-61
2022/12/31 04:09:12;;;;;;;;;;;;;;;20.12;54.46;100224.78;5025283;28;4104;-61
2022/12/31 04:11:38;;;;;;;;;;;;;;;20.11;54.53;100226.88;5021675;28;5172;-61
2022/12/31 04:14:04;;;;;;;;;;;;;;;20.13;54.38;100226.97;5021877;28;4196;-62
2022/12/31 04:16:31;;;;;;;;;;;;;;;20.14;54.32;100225.59;5022232;28;4506;-61
2022/12/31 04:18:58;;;;;;;;;;;;;;;20.14;54.52;100228.47;5022970;28;4042;-61
2022/12/31 04:21:24;;;;;;;;;;;;;;;20.14;54.47;100239.22;5019789;28;4115;-61
2022/12/31 04:24:01;;;;;;;;;;;;;;;20.15;54.50;100234.94;5021292;28;5283;-61
2022/12/31 04:26:27;;;;;;;;;;;;;;;20.15;54.54;100232.06;5021595;28;4364;-62
2022/12/31 04:28:54;;;;;;;;;;;;;;;20.16;54.55;100237.16;5017810;28;4244;-61
2022/12/31 04:31:20;;;;;;;;;;;;;;;20.19;54.21;100223.59;5022027;28;4203;-61
2022/12/31 04:33:47;;;;;;;;;;;;;;;20.19;54.91;100230.06;5018899;28;4201;-61
2022/12/31 04:36:13;;;;;;;;;;;;;;;20.16;54.82;100219.91;5024422;28;4182;-61
2022/12/31 04:38:40;;;;;;;;;;;;;;;20.15;54.99;100223.44;5024331;28;4152;-61
2022/12/31 04:41:15;;;;;;;;;;;;;;;20.16;55.02;100217.03;5025056;28;4145;-61
2022/12/31 04:43:42;;;;;;;;;;;;;;;20.15;55.04;100212.66;5025144;28;4247;-61
2022/12/31 04:46:08;;;;;;;;;;;;;;;20.15;55.06;100192.56;5022215;28;4161;-61
2022/12/31 04:48:35;;;;;;;;;;;;;;;20.15;55.45;100188.94;5020087;28;4199;-61
2022/12/31 04:51:01;;;;;;;;;;;;;;;20.16;55.58;100179.66;5019984;28;4192;-62
2022/12/31 04:53:28;;;;;;;;;;;;;;;20.16;55.39;100178.91;5025461;28;4365;-61
2022/12/31 04:55:54;;;;;;;;;;;;;;;20.16;55.64;100184.66;5018536;28;4226;-61
2022/12/31 04:58:20;;;;;;;;;;;;;;;20.15;55.58;100174.56;5023146;28;4513;-61
2022/12/31 05:00:48;;;;;;;;;;;;;;;20.15;55.50;100171.69;5017150;28;5399;-61
2022/12/31 05:03:15;;;;;;;;;;;;;;;20.15;55.67;100174.56;5018909;28;4317;-61
2022/12/31 05:05:42;;;;;;;;;;;;;;;20.15;55.86;100171.69;5021159;28;4195;-61
2022/12/31 05:08:09;;;;;;;;;;;;;;;20.14;55.71;100168.09;5017663;28;4183;-61
2022/12/31 05:10:35;;;;;;;;;;;;;;;20.14;55.88;100181.72;5024790;28;4195;-61
2022/12/31 05:13:01;;;;;;;;;;;;;;;20.14;55.65;100187.47;5013887;28;4448;-61
2022/12/31 05:15:28;;;;;;;;;;;;;;;20.13;55.67;100192.47;5023922;28;4297;-61
2022/12/31 05:17:54;;;;;;;;;;;;;;;20.14;55.84;100198.97;5017403;28;4183;-61
2022/12/31 05:20:21;;;;;;;;;;;;;;;20.13;55.76;100197.50;5020902;28;5059;-61
2022/12/31 05:22:47;;;;;;;;;;;;;;;20.13;55.74;100197.50;5019891;28;4339;-61
2022/12/31 05:25:13;;;;;;;;;;;;;;;20.12;55.85;100207.53;5022872;28;4169;-61
2022/12/31 05:27:40;;;;;;;;;;;;;;;20.12;55.88;100201.78;5017357;28;4489;-61
2022/12/31 05:30:06;;;;;;;;;;;;;;;20.12;55.85;100196.03;5014561;28;4264;-61
2022/12/31 05:32:33;;;;;;;;;;;;;;;20.11;55.84;100183.03;5015442;28;4220;-61
2022/12/31 05:34:59;;;;;;;;;;;;;;;20.11;55.74;100168.66;5022004;28;4463;-62
2022/12/31 05:37:26;;;;;;;;;;;;;;;20.09;55.71;100158.59;5022417;28;4075;-61
2022/12/31 05:39:52;;;;;;;;;;;;;;;20.09;55.87;100144.22;5023405;28;4175;-61
2022/12/31 05:42:19;;;;;;;;;;;;;;;20.09;55.80;100141.34;5019181;28;5211;-61
2022/12/31 05:44:45;;;;;;;;;;;;;;;20.09;55.73;100143.50;5019869;28;4183;-61
2022/12/31 05:47:12;;;;;;;;;;;;;;;20.08;55.83;100131.22;5019368;28;4941;-61
2022/12/31 05:49:38;;;;;;;;;;;;;;;20.09;55.85;100137.75;5020260;28;4129;-61
2022/12/31 05:52:05;;;;;;;;;;;;;;;20.08;55.90;100128.34;5020837;28;4170;-62
2022/12/31 05:54:32;;;;;;;;;;;;;;;20.07;55.92;100132.66;5023244;28;5311;-61
2022/12/31 05:56:58;;;;;;;;;;;;;;;20.07;55.91;100126.91;5019044;28;5315;-61
2022/12/31 05:59:24;;;;;;;;;;;;;;;20.06;55.99;100122.53;5018610;28;5253;-61
2022/12/31 06:01:50;;;;;;;;;;;;;;;20.05;55.83;100115.31;5019667;28;5455;-61
2022/12/31 06:04:17;;;;;;;;;;;;;;;20.06;55.85;100113.91;5019259;28;5286;-61
2022/12/31 06:06:43;;;;;;;;;;;;;;;20.07;55.93;100109.66;5021853;28;4095;-61
2022/12/31 06:09:09;;;;;;;;;;;;;;;20.07;55.82;100111.78;5015526;28;4126;-61
2022/12/31 06:11:36;;;;;;;;;;;;;;;20.09;55.84;100111.88;5017978;28;4183;-61
2022/12/31 06:14:15;;;;;;;;;;;;;;;20.09;55.73;100121.22;5021395;28;4117;-61
2022/12/31 06:16:41;;;;;;;;;;;;;;;20.11;55.60;100114.78;5021263;28;5376;-61
2022/12/31 06:19:07;;;;;;;;;;;;;;;20.12;55.50;100104.78;5021125;28;5154;-61
2022/12/31 06:21:34;;;;;;;;;;;;;;;20.13;55.55;100105.50;5019322;28;4209;-61
2022/12/31 06:24:00;;;;;;;;;;;;;;;20.13;55.56;100103.38;5013692;28;4162;-62
2022/12/31 06:26:29;;;;;;;;;;;;;;;20.15;55.54;100114.22;5022155;28;5261;-61
2022/12/31 06:28:55;;;;;;;;;;;;;;;20.16;55.40;100113.56;5020326;28;4086;-61
2022/12/31 06:31:22;;;;;;;;;;;;;;;20.16;55.43;100115.69;5018213;28;4189;-61
2022/12/31 06:33:48;;;;;;;;;;;;;;;20.16;55.27;100116.44;5016086;28;5310;-61
2022/12/31 06:36:14;;;;;;;;;;;;;;;20.16;55.23;100127.16;5018995;28;4248;-61
2022/12/31 06:38:42;;;;;;;;;;;;;;;20.16;55.09;100132.91;5019901;28;4125;-61
2022/12/31 06:41:09;;;;;;;;;;;;;;;20.15;55.52;100103.44;5017148;28;4197;-61
2022/12/31 06:43:35;;;;;;;;;;;;;;;20.15;55.61;100099.84;5014668;28;4206;-62
2022/12/31 06:46:02;;;;;;;;;;;;;;;20.09;55.47;100101.09;5022738;28;4171;-65
2022/12/31 06:48:29;;;;;;;;;;;;;;;20.19;55.28;100105.75;5019113;28;4203;-61
2022/12/31 06:50:55;;;;;;;;;;;;;;;20.11;55.24;100103.31;5017011;28;4859;-61
2022/12/31 06:53:21;;;;;;;;;;;;;;;20.12;55.31;100104.06;5020346;28;4060;-61
2022/12/31 06:55:48;;;;;;;;;;;;;;;20.13;55.58;100111.25;5020161;28;4126;-61
2022/12/31 06:58:14;;;;;;;;;;;;;;;20.14;55.72;100101.25;5018028;28;5333;-61
2022/12/31 07:00:49;;;;;;;;;;;;;;;20.14;55.72;100104.13;5021450;28;4114;-62
2022/12/31 07:03:21;;;;;;;;;;;;;;;20.15;55.66;100096.97;4997868;28;4264;-61
2022/12/31 07:05:51;;;;;;;;;;;;;;;20.14;55.94;100101.25;4995125;28;4364;-61
2022/12/31 07:08:20;;;;;;;;;;;;;;;20.13;55.81;100096.91;5020228;28;4181;-61
2022/12/31 07:10:59;;;;;;;;;;;;;;;20.13;55.95;100089.00;5000296;28;4171;-61
2022/12/31 07:13:29;;;;;;;;;;;;;;;20.13;55.62;100076.78;5003202;28;5173;-61
2022/12/31 07:16:14;;;;;;;;;;;;;;;20.13;55.62;100094.75;5016767;28;4185;-62
2022/12/31 07:18:50;;;;;;;;;;;;;;;20.12;55.79;100098.31;5021421;28;4481;-62
2022/12/31 07:21:17;;;;;;;;;;;;;;;20.12;55.53;100092.56;5001803;28;4142;-61
2022/12/31 07:23:43;;;;;;;;;;;;;;;20.13;55.34;100088.28;5000930;28;4328;-60
2022/12/31 07:26:13;;;;;;;;;;;;;;;20.09;55.41;100101.09;5017209;28;4274;-61
2022/12/31 07:28:43;;;;;;;;;;;;;;;20.11;55.80;100093.94;5026417;28;4139;-61
2022/12/31 07:31:11;;;;;;;;;;;;;;;20.13;55.61;100099.78;5018529;28;4326;-60
2022/12/31 07:33:57;;;;;;;;;;;;;;;20.16;55.72;100087.69;4998446;28;4203;-61
2022/12/31 07:36:44;;;;;;;;;;;;;;;20.14;55.38;100084.00;5023431;28;4144;-61
2022/12/31 07:39:15;;;;;;;;;;;;;;;20.05;55.33;100089.47;4990997;28;4279;-61
2022/12/31 07:41:56;;;;;;;;;;;;;;;19.90;55.97;100081.00;5000716;28;4217;-63
2022/12/31 07:44:29;;;;;;;;;;;;;;;19.50;56.40;100096.06;5013208;28;5496;-63
2022/12/31 07:46:55;;;;;;;;;;;;;;;19.37;56.53;100102.72;5024548;28;4038;-64
2022/12/31 07:49:22;;;;;;;;;;;;;;;19.40;56.57;100110.78;5024147;28;4261;-63
2022/12/31 07:51:49;;;;;;;;;;;;;;;19.50;56.36;100109.69;5015740;28;4179;-64
2022/12/31 07:54:15;;;;;;;;;;;;;;;19.53;56.37;100122.72;5017787;28;5303;-61
2022/12/31 07:56:41;;;;;;;;;;;;;;;19.80;55.70;100118.72;5018374;28;4456;-61
2022/12/31 07:59:13;;;;;;;;;;;;;;;19.87;55.50;100103.91;5020138;28;4139;-61
2022/12/31 08:01:48;;;;;;;;;;;;;;;19.93;55.52;100129.25;5019434;28;4192;-61
2022/12/31 08:04:17;;;;;;;;;;;;;;;19.95;55.52;100132.22;5003357;28;4361;-61
2022/12/31 08:06:52;;;;;;;;;;;;;;;19.98;55.52;100135.91;5023981;28;4501;-61
2022/12/31 08:09:28;;;;;;;;;;;;;;;19.99;55.49;100137.34;5002120;28;5441;-61
2022/12/31 08:11:55;;;;;;;;;;;;;;;20.01;55.38;100135.28;5003478;28;4945;-61
2022/12/31 08:14:22;;;;;;;;;;;;;;;20.01;55.62;100134.56;5022884;28;4147;-60
2022/12/31 08:16:48;;;;;;;;;;;;;;;20.02;55.62;100133.91;5020990;28;4197;-60
2022/12/31 08:19:22;;;;;;;;;;;;;;;20.02;55.56;100119.53;5024340;28;4002;-61
2022/12/31 08:22:01;;;;;;;;;;;;;;;20.03;55.50;100131.75;5022778;28;4100;-61
2022/12/31 08:24:29;;;;;;;;;;;;;;;20.03;55.59;100126.00;5001904;28;4137;-61
2022/12/31 08:27:19;;;;;;;;;;;;;;;20.03;55.58;100135.38;5005465;28;4116;-61
2022/12/31 08:29:57;;;;;;;;;;;;;;;20.05;55.64;100138.31;5023010;28;4007;-61
2022/12/31 08:32:40;;;;;;;;;;;;;;;20.05;55.54;100131.84;4999958;28;4050;-61
2022/12/31 08:35:06;;;;;;;;;;;;;;;20.03;55.56;100138.25;5023112;28;4083;-61
2022/12/31 08:37:37;;;;;;;;;;;;;;;20.04;55.63;100121.72;5020585;28;5389;-61
2022/12/31 08:40:11;;;;;;;;;;;;;;;20.03;55.55;100138.25;4998533;28;4179;-61
2022/12/31 08:42:52;;;;;;;;;;;;;;;20.06;55.58;100139.78;4993940;28;4354;-62
2022/12/31 08:45:24;;;;;;;;;;;;;;;20.04;55.58;100136.84;5022113;28;4169;-61
2022/12/31 08:48:10;;;;;;;;;;;;;;;20.04;55.56;100122.50;5023424;28;4018;-61
2022/12/31 08:50:37;;;;;;;;;;;;;;;20.05;55.47;100123.94;4994169;28;4130;-62
2022/12/31 08:53:03;;;;;;;;;;;;;;;20.06;55.60;100145.53;5021469;28;4131;-61
2022/12/31 08:55:30;;;;;;;;;;;;;;;20.06;55.70;100148.41;5024318;28;4394;-61
2022/12/31 08:58:06;;;;;;;;;;;;;;;20.07;55.81;100154.91;5024007;28;4180;-62
2022/12/31 09:00:32;;;;;;;;;;;;;;;20.06;55.46;100159.91;5022149;28;4884;-62
2022/12/31 09:03:08;;;;;;;;;;;;;;;20.05;55.45;100155.56;5026062;28;4189;-61
2022/12/31 09:05:46;;;;;;;;;;;;;;;20.06;55.65;100159.91;5005101;28;5523;-61
2022/12/31 09:08:25;;;;;;;;;;;;;;;20.06;55.48;100159.91;5021143;28;4007;-61
2022/12/31 09:10:51;;;;;;;;;;;;;;;20.07;55.40;100149.88;5026518;28;5370;-62
2022/12/31 09:13:20;;;;;;;;;;;;;;;20.07;55.52;100161.38;5023677;28;4106;-61
2022/12/31 09:15:49;;;;;;;;;;;;;;;20.07;55.55;100157.78;4998712;28;4218;-62
2022/12/31 09:18:15;;;;;;;;;;;;;;;20.08;55.48;100159.97;4996314;28;4190;-62
2022/12/31 09:20:42;;;;;;;;;;;;;;;20.08;55.49;100157.09;5026670;28;4199;-62
2022/12/31 09:23:10;;;;;;;;;;;;;;;20.06;55.38;100151.28;5018494;28;5224;-62
2022/12/31 09:25:41;;;;;;;;;;;;;;;20.08;55.58;100145.59;5019203;28;3934;-63
2022/12/31 09:28:11;;;;;;;;;;;;;;;20.08;55.51;100139.84;5022933;28;4524;-61
2022/12/31 09:30:40;;;;;;;;;;;;;;;20.09;55.42;100152.84;5022080;28;4223;-61
2022/12/31 09:33:09;;;;;;;;;;;;;;;20.09;55.39;100141.34;5023569;28;4165;-62
2022/12/31 09:35:47;;;;;;;;;;;;;;;20.09;55.58;100149.97;4993999;28;6379;-62
2022/12/31 09:38:25;;;;;;;;;;;;;;;20.11;55.44;100148.56;5008069;28;4094;-61
2022/12/31 09:40:53;;;;;;;;;;;;;;;20.09;55.42;100155.72;5023638;28;4321;-61
2022/12/31 09:43:26;;;;;;;;;;;;;;;20.09;55.61;100152.84;5004263;28;4113;-61
2022/12/31 09:45:55;;;;;;;;;;;;;;;20.11;55.40;100142.81;5003610;28;4014;-61
2022/12/31 09:48:33;;;;;;;;;;;;;;;20.09;55.50;100141.34;5023480;28;4062;-59
2022/12/31 09:51:12;;;;;;;;;;;;;;;20.09;55.43;100135.59;5021098;28;4149;-61
2022/12/31 09:53:58;;;;;;;;;;;;;;;20.09;55.57;100138.47;5022368;28;4240;-60
2022/12/31 09:56:26;;;;;;;;;;;;;;;20.09;55.40;100144.22;5000320;28;4150;-61
2022/12/31 09:59:02;;;;;;;;;;;;;;;20.11;55.34;100148.56;5021055;28;4220;-60
2022/12/31 10:01:43;;;;;;;;;;;;;;;20.09;55.47;100141.34;5001209;28;4077;-60
2022/12/31 10:04:17;;;;;;;;;;;;;;;20.09;55.55;100147.09;5021028;28;4131;-61
2022/12/31 10:06:59;;;;;;;;;;;;;;;20.11;55.46;100145.69;5018989;28;5297;-61
2022/12/31 10:09:25;;;;;;;;;;;;;;;20.11;55.38;100152.16;5025476;28;4216;-62
2022/12/31 10:12:03;;;;;;;;;;;;;;;20.12;55.34;100159.41;5019080;28;4059;-61
2022/12/31 10:14:40;;;;;;;;;;;;;;;20.13;55.52;100163.00;4997664;28;5416;-62
2022/12/31 10:17:17;;;;;;;;;;;;;;;20.14;55.32;100147.97;4995327;28;4133;-61
2022/12/31 10:19:46;;;;;;;;;;;;;;;20.15;55.13;100171.69;4999759;28;5237;-62
2022/12/31 10:22:36;;;;;;;;;;;;;;;20.16;55.10;100161.66;5000136;28;4040;-62
2022/12/31 10:25:22;;;;;;;;;;;;;;;20.17;55.03;100166.75;5023723;28;4337;-62
2022/12/31 10:28:09;;;;;;;;;;;;;;;20.18;55.05;100204.84;5000050;28;4139;-61
2022/12/31 10:30:35;;;;;;;;;;;;;;;20.18;55.23;100204.84;4991145;28;4208;-64
2022/12/31 10:33:15;;;;;;;;;;;;;;;20.19;54.99;100209.22;5004206;28;5196;-64
2022/12/31 10:35:42;;;;;;;;;;;;;;;20.18;55.17;100219.22;5021673;28;4176;-65
2022/12/31 10:38:18;;;;;;;;;;;;;;;20.19;55.25;100223.59;5000442;28;5189;-65
2022/12/31 10:41:06;;;;;;;;;;;;;;;20.19;55.28;100237.97;5023400;28;4033;-64
2022/12/31 10:43:45;;;;;;;;;;;;;;;20.19;55.27;100235.09;4994878;28;5199;-65
2022/12/31 10:46:30;;;;;;;;;;;;;;;20.18;55.15;100245.09;4996785;28;4160;-64
2022/12/31 10:49:20;;;;;;;;;;;;;;;20.17;55.18;100246.50;5023780;28;4253;-65
2022/12/31 10:52:07;;;;;;;;;;;;;;;20.18;55.30;100248.75;4994419;28;4177;-65
2022/12/31 10:54:49;;;;;;;;;;;;;;;20.18;55.16;100245.09;4999986;28;4127;-64
2022/12/31 10:57:21;;;;;;;;;;;;;;;20.19;55.25;100246.59;5000408;28;5050;-65
2022/12/31 10:59:53;;;;;;;;;;;;;;;20.18;55.26;100242.22;5023134;28;4276;-65
2022/12/31 11:02:19;;;;;;;;;;;;;;;20.16;55.39;100239.28;4996269;28;4139;-66
2022/12/31 11:05:04;;;;;;;;;;;;;;;20.20;55.33;100240.19;5013267;28;4247;-66
2022/12/31 11:07:53;;;;;;;;;;;;;;;20.27;55.08;100244.00;5005029;28;4136;-63
2022/12/31 11:10:39;;;;;;;;;;;;;;;20.24;55.24;100243.19;5020813;28;4159;-64
2022/12/31 11:13:05;;;;;;;;;;;;;;;20.32;55.50;100245.66;4995707;28;4325;-68
2022/12/31 11:15:36;;;;;;;;;;;;;;;20.44;55.33;100253.97;5012005;28;4816;-70
2022/12/31 11:18:05;;;;;;;;;;;;;;;20.51;55.31;100255.66;5023280;28;5326;-74
2022/12/31 11:20:45;;;;;;;;;;;;;;;20.51;54.90;100250.66;4999565;28;5456;-73
2022/12/31 11:23:25;;;;;;;;;;;;;;;20.56;54.97;100245.06;5005006;28;4174;-72
2022/12/31 11:25:57;;;;;;;;;;;;;;;20.62;54.93;100233.78;5009790;28;4049;-71
2022/12/31 11:28:28;;;;;;;;;;;;;;;20.66;54.51;100246.19;5027064;28;4123;-74
2022/12/31 11:31:11;;;;;;;;;;;;;;;20.66;54.40;100228.16;5016271;28;4420;-67
2022/12/31 11:33:43;;;;;;;;;;;;;;;20.52;54.61;100222.63;5013471;28;4136;-67
2022/12/31 11:36:18;;;;;;;;;;;;;;;20.43;54.91;100224.50;5002568;28;4197;-68
2022/12/31 11:38:44;;;;;;;;;;;;;;;20.42;55.03;100223.00;4990101;28;3969;-68
2022/12/31 11:41:20;;;;;;;;;;;;;;;20.41;55.09;100215.78;5012085;28;4201;-68
2022/12/31 11:44:05;;;;;;;;;;;;;;;20.39;54.96;100207.09;4997416;28;4149;-68
2022/12/31 11:46:38;;;;;;;;;;;;;;;20.41;54.83;100200.66;5024023;28;6280;-68
2022/12/31 11:49:10;;;;;;;;;;;;;;;20.41;55.04;100204.28;5016360;28;4131;-69
2022/12/31 11:51:46;;;;;;;;;;;;;;;20.36;55.12;100208.41;5022039;28;4170;-68
2022/12/31 11:54:34;;;;;;;;;;;;;;;20.37;55.18;100209.88;5016764;28;4139;-68
2022/12/31 11:57:03;;;;;;;;;;;;;;;20.35;55.05;100201.19;5022179;28;4202;-68
2022/12/31 11:59:29;;;;;;;;;;;;;;;20.37;55.02;100204.13;5001078;28;4120;-69
2022/12/31 12:01:58;;;;;;;;;;;;;;;20.37;55.06;100201.25;4992028;28;4072;-68
2022/12/31 12:04:25;;;;;;;;;;;;;;;20.37;55.05;100186.88;5013976;28;4120;-67
2022/12/31 12:06:51;;;;;;;;;;;;;;;20.36;55.23;100202.66;5023551;28;4025;-68
2022/12/31 12:09:27;;;;;;;;;;;;;;;20.36;54.95;100191.16;5019370;28;4689;-67
2022/12/31 12:11:58;;;;;;;;;;;;;;;20.34;55.06;100188.22;4998447;28;4194;-68
2022/12/31 12:14:37;;;;;;;;;;;;;;;20.36;55.10;100205.53;5019353;28;5487;-68
2022/12/31 12:17:07;;;;;;;;;;;;;;;20.37;55.15;100204.13;5022926;28;4248;-68
2022/12/31 12:19:34;;;;;;;;;;;;;;;20.34;55.16;100196.84;4995303;28;5303;-69
2022/12/31 12:22:20;;;;;;;;;;;;;;;20.34;54.92;100193.22;5025444;28;4112;-69
2022/12/31 12:24:53;;;;;;;;;;;;;;;20.32;55.04;100188.16;5021191;28;4154;-68
2022/12/31 12:27:20;;;;;;;;;;;;;;;20.33;55.01;100198.22;5018615;28;4196;-69
2022/12/31 12:29:47;;;;;;;;;;;;;;;20.32;55.14;100202.53;5018227;28;4112;-68
2022/12/31 12:32:14;;;;;;;;;;;;;;;20.36;54.98;100204.78;5022939;28;4208;-67
2022/12/31 12:34:40;;;;;;;;;;;;;;;20.35;55.09;100209.81;5022131;28;4161;-68
2022/12/31 12:37:23;;;;;;;;;;;;;;;20.32;55.00;100207.50;5020757;28;6284;-68
2022/12/31 12:39:56;;;;;;;;;;;;;;;20.33;54.97;100197.50;5023066;28;5270;-68
2022/12/31 12:42:22;;;;;;;;;;;;;;;20.32;55.09;100191.03;5022743;28;5478;-68
2022/12/31 12:44:59;;;;;;;;;;;;;;;20.32;55.00;100201.75;5025267;28;5445;-67
2022/12/31 12:47:25;;;;;;;;;;;;;;;20.31;55.20;100195.28;5026214;28;5479;-68
2022/12/31 12:49:52;;;;;;;;;;;;;;;20.31;55.01;100183.78;5026202;28;5509;-68
2022/12/31 12:52:31;;;;;;;;;;;;;;;20.30;54.98;100193.81;5018996;28;4150;-68
2022/12/31 12:55:04;;;;;;;;;;;;;;;20.31;54.92;100195.28;5022189;28;4568;-68
2022/12/31 12:57:33;;;;;;;;;;;;;;;20.32;55.14;100188.16;5018995;28;4315;-70
2022/12/31 13:00:18;;;;;;;;;;;;;;;20.31;55.05;100201.03;5001785;28;4604;-71
2022/12/31 13:03:03;;;;;;;;;;;;;;;20.27;55.51;100200.88;5021862;28;3980;-68
2022/12/31 13:05:37;;;;;;;;;;;;;;;20.26;55.33;100205.16;5025008;28;4284;-68
2022/12/31 13:08:22;;;;;;;;;;;;;;;20.27;55.50;100212.38;4998175;28;5049;-68
2022/12/31 13:10:54;;;;;;;;;;;;;;;20.27;55.50;100204.50;5022465;28;4387;-68
2022/12/31 13:13:37;;;;;;;;;;;;;;;20.28;55.45;100197.34;5023672;28;4143;-69
2022/12/31 13:16:06;;;;;;;;;;;;;;;20.33;55.40;100209.72;5016609;28;4194;-68
2022/12/31 13:18:35;;;;;;;;;;;;;;;20.34;55.54;100205.47;5002426;28;4144;-71
2022/12/31 13:21:26;;;;;;;;;;;;;;;20.38;55.60;100216.38;5016738;28;4161;-70
2022/12/31 13:23:54;;;;;;;;;;;;;;;20.40;55.74;100214.28;5022307;28;5042;-69
2022/12/31 13:26:30;;;;;;;;;;;;;;;20.72;57.49;100214.00;4994868;28;5511;-71
2022/12/31 13:28:57;;;;;;;;;;;;;;;20.96;56.74;100222.75;5021471;28;4196;-71